Date,TemperatureHighF,TemperatureAvgF,TemperatureLowF,DewpointHighF,DewpointAvgF,DewpointLowF,HumidityHigh,HumidityAvg,HumidityLow,PressureMaxIn,PressureMinIn,WindSpeedMaxMPH,WindSpeedAvgMPH,GustSpeedMaxMPH,PrecipitationSumIn
2013-10-1,72,58,43,57,51,42,98,80,56,30.04,29.93,8,0,15,0.00
2013-10-2,69,63,52,60,56,49,91,77,71,30.00,29.88,14,2,21,0.00
2013-10-3,72,59,47,52,44,34,88,61,27,30.12,29.99,6,0,14,0.00
2013-10-4,57,53,51,56,51,43,98,92,71,30.11,30.06,0,0,2,0.62
2013-10-5,58,56,53,58,55,52,99,97,88,30.14,30.09,0,0,1,0.09
2013-10-6,56,51,48,55,51,48,100,98,98,30.19,30.12,6,0,9,0.12
2013-10-7,65,55,49,64,54,46,99,96,83,30.14,29.74,12,2,22,0.76
2013-10-8,56,48,38,46,39,35,94,73,47,30.42,29.93,9,1,23,0.00
2013-10-9,58,45,35,42,37,33,97,76,42,30.54,30.41,5,0,6,0.00
2013-10-10,60,48,35,44,36,22,97,67,23,30.42,30.24,0,0,2,0.00
2013-10-11,67,56,47,45,33,22,74,45,18,30.24,30.15,4,0,4,0.00
2013-10-12,59,53,48,51,47,38,100,83,55,30.40,30.20,5,0,8,0.00
2013-10-13,59,50,43,48,46,42,98,86,62,30.47,30.39,4,0,7,0.00
2013-10-14,66,54,42,53,47,41,98,81,55,30.40,30.27,5,0,11,0.00
2013-10-15,58,55,51,54,52,49,95,90,83,30.29,30.17,1,0,4,0.00
2013-10-16,58,51,48,51,48,43,98,88,72,30.17,29.91,6,0,10,0.00
2013-10-17,63,56,50,55,49,44,97,79,51,29.91,29.68,19,1,20,0.05
2013-10-18,57,52,48,56,44,34,98,77,53,29.92,29.59,18,5,24,0.21
2013-10-19,59,50,38,45,40,36,94,71,50,29.98,29.73,8,1,18,0.01
2013-10-20,50,45,41,45,37,33,89,74,57,30.05,29.69,12,3,24,0.01
2013-10-21,61,48,36,40,37,33,91,67,42,30.14,29.97,8,1,17,0.00
2013-10-22,52,45,40,47,40,29,91,80,62,29.97,29.75,11,2,16,0.09
2013-10-23,44,40,32,33,31,27,89,71,51,29.81,29.64,9,1,19,0.00
2013-10-24,41,36,32,32,29,25,85,76,58,29.93,29.71,12,4,33,0.00
2013-10-25,39,36,32,32,28,25,88,75,58,30.16,29.93,12,3,21,0.00
2013-10-26,44,39,35,33,29,24,89,67,47,30.17,29.86,15,2,23,0.00
2013-10-27,42,39,36,33,31,28,82,72,59,30.08,29.80,15,3,22,0.00
2013-10-28,46,38,29,35,29,20,84,70,51,30.38,30.07,14,3,20,0.00
2013-10-29,40,30,22,24,20,16,92,67,37,30.49,30.38,7,0,11,0.00
2013-10-30,44,35,27,37,31,22,99,85,75,30.41,30.26,8,1,17,0.03
2013-10-31,57,44,33,56,43,32,100,96,92,30.29,29.77,13,1,21,0.86